Terminal Aerodrome Forecast
Issued by NWS Tuscon, AZ

Current Version | Previous Version | Text Only | Print | Product List | Glossary On
Versions: 1 2 3 4 5 6 7 8 9 10 11 12 13 14 15 16 17 18
000
FTUS45 KTWC 290500
TAFDUG
TAF
KDUG 290520Z 2906/3006 36005KT P6SM SCT200
     FM292000 30005KT P6SM FEW050 SCT180=

USA.gov is the U.S. government's official web portal to all federal, state and local government web resources and services.